sensor_id;sensor_type;location;lat;lon;timestamp;P1;durP1;ratioP1;P2;durP2;ratioP2
23565;SDS011;22140;48.988;8.544;2022-11-11T00:04:22;21.65;;;7.40;;
23565;SDS011;22140;48.988;8.544;2022-11-11T00:09:23;14.57;;;6.10;;
23565;SDS011;22140;48.988;8.544;2022-11-11T00:14:24;16.00;;;6.40;;
23565;SDS011;22140;48.988;8.544;2022-11-11T00:19:26;14.43;;;6.27;;
23565;SDS011;22140;48.988;8.544;2022-11-11T00:24:45;15.43;;;6.50;;
23565;SDS011;22140;48.988;8.544;2022-11-11T00:30:05;14.93;;;6.28;;
23565;SDS011;22140;48.988;8.544;2022-11-11T00:35:07;12.60;;;6.13;;
23565;SDS011;22140;48.988;8.544;2022-11-11T00:40:27;17.02;;;6.28;;
23565;SDS011;22140;48.988;8.544;2022-11-11T00:45:29;16.33;;;6.60;;
23565;SDS011;22140;48.988;8.544;2022-11-11T00:50:35;16.08;;;6.20;;
23565;SDS011;22140;48.988;8.544;2022-11-11T00:55:55;14.18;;;6.10;;
23565;SDS011;22140;48.988;8.544;2022-11-11T01:00:56;13.30;;;5.72;;
23565;SDS011;22140;48.988;8.544;2022-11-11T01:06:01;11.20;;;5.43;;
23565;SDS011;22140;48.988;8.544;2022-11-11T01:11:02;12.23;;;5.30;;
23565;SDS011;22140;48.988;8.544;2022-11-11T01:16:05;17.58;;;5.38;;
23565;SDS011;22140;48.988;8.544;2022-11-11T01:21:09;12.30;;;5.47;;
23565;SDS011;22140;48.988;8.544;2022-11-11T01:31:13;13.73;;;5.47;;
23565;SDS011;22140;48.988;8.544;2022-11-11T01:36:16;12.73;;;5.20;;
23565;SDS011;22140;48.988;8.544;2022-11-11T01:41:20;14.00;;;5.32;;
23565;SDS011;22140;48.988;8.544;2022-11-11T01:46:40;14.00;;;5.57;;
23565;SDS011;22140;48.988;8.544;2022-11-11T01:57:05;13.05;;;4.93;;
23565;SDS011;22140;48.988;8.544;2022-11-11T02:02:11;11.57;;;4.50;;
23565;SDS011;22140;48.988;8.544;2022-11-11T02:07:17;12.35;;;4.68;;
23565;SDS011;22140;48.988;8.544;2022-11-11T02:12:19;14.82;;;4.45;;
23565;SDS011;22140;48.988;8.544;2022-11-11T02:17:39;9.57;;;4.15;;
23565;SDS011;22140;48.988;8.544;2022-11-11T02:22:47;10.82;;;4.53;;
23565;SDS011;22140;48.988;8.544;2022-11-11T02:27:50;10.97;;;4.17;;
23565;SDS011;22140;48.988;8.544;2022-11-11T02:32:52;11.80;;;4.30;;
23565;SDS011;22140;48.988;8.544;2022-11-11T02:37:54;11.18;;;3.83;;
23565;SDS011;22140;48.988;8.544;2022-11-11T02:42:55;9.68;;;4.00;;
23565;SDS011;22140;48.988;8.544;2022-11-11T02:47:57;12.50;;;4.10;;
23565;SDS011;22140;48.988;8.544;2022-11-11T02:52:58;9.60;;;3.67;;
23565;SDS011;22140;48.988;8.544;2022-11-11T02:58:00;9.75;;;4.43;;
23565;SDS011;22140;48.988;8.544;2022-11-11T03:03:01;11.70;;;4.10;;
23565;SDS011;22140;48.988;8.544;2022-11-11T03:08:02;11.18;;;4.18;;
23565;SDS011;22140;48.988;8.544;2022-11-11T03:13:04;13.05;;;4.45;;
23565;SDS011;22140;48.988;8.544;2022-11-11T03:18:06;9.97;;;4.13;;
23565;SDS011;22140;48.988;8.544;2022-11-11T03:23:11;12.68;;;4.20;;
23565;SDS011;22140;48.988;8.544;2022-11-11T03:28:19;9.70;;;4.25;;
23565;SDS011;22140;48.988;8.544;2022-11-11T03:33:21;11.32;;;4.70;;
23565;SDS011;22140;48.988;8.544;2022-11-11T03:38:22;9.15;;;3.88;;
23565;SDS011;22140;48.988;8.544;2022-11-11T03:43:25;12.73;;;4.30;;
23565;SDS011;22140;48.988;8.544;2022-11-11T03:48:28;11.38;;;4.20;;
23565;SDS011;22140;48.988;8.544;2022-11-11T03:53:30;10.52;;;4.45;;
23565;SDS011;22140;48.988;8.544;2022-11-11T03:58:31;11.48;;;4.22;;
23565;SDS011;22140;48.988;8.544;2022-11-11T04:03:32;15.88;;;4.80;;
23565;SDS011;22140;48.988;8.544;2022-11-11T04:08:52;13.20;;;4.93;;
23565;SDS011;22140;48.988;8.544;2022-11-11T04:14:13;14.13;;;4.32;;
23565;SDS011;22140;48.988;8.544;2022-11-11T04:19:33;9.73;;;3.75;;
23565;SDS011;22140;48.988;8.544;2022-11-11T04:24:53;10.00;;;3.80;;
23565;SDS011;22140;48.988;8.544;2022-11-11T04:30:12;10.20;;;3.90;;
23565;SDS011;22140;48.988;8.544;2022-11-11T04:35:14;9.57;;;4.00;;
23565;SDS011;22140;48.988;8.544;2022-11-11T04:40:15;10.38;;;4.15;;
23565;SDS011;22140;48.988;8.544;2022-11-11T04:45:35;11.68;;;4.35;;
23565;SDS011;22140;48.988;8.544;2022-11-11T04:50:40;12.38;;;4.80;;
23565;SDS011;22140;48.988;8.544;2022-11-11T04:55:42;10.25;;;3.65;;
23565;SDS011;22140;48.988;8.544;2022-11-11T05:01:01;9.00;;;3.43;;
23565;SDS011;22140;48.988;8.544;2022-11-11T05:06:03;10.48;;;3.10;;
23565;SDS011;22140;48.988;8.544;2022-11-11T05:11:29;6.90;;;2.60;;
23565;SDS011;22140;48.988;8.544;2022-11-11T05:16:32;14.57;;;4.03;;
23565;SDS011;22140;48.988;8.544;2022-11-11T05:21:53;9.85;;;2.70;;
23565;SDS011;22140;48.988;8.544;2022-11-11T05:26:56;12.17;;;4.30;;
23565;SDS011;22140;48.988;8.544;2022-11-11T05:31:58;9.40;;;3.17;;
23565;SDS011;22140;48.988;8.544;2022-11-11T05:36:59;9.48;;;2.60;;
23565;SDS011;22140;48.988;8.544;2022-11-11T05:42:00;7.85;;;3.25;;
23565;SDS011;22140;48.988;8.544;2022-11-11T05:47:01;15.57;;;4.63;;
23565;SDS011;22140;48.988;8.544;2022-11-11T05:52:03;11.30;;;4.27;;
23565;SDS011;22140;48.988;8.544;2022-11-11T05:57:05;11.18;;;4.47;;
23565;SDS011;22140;48.988;8.544;2022-11-11T06:02:06;10.00;;;3.90;;
23565;SDS011;22140;48.988;8.544;2022-11-11T06:07:07;13.65;;;5.25;;
23565;SDS011;22140;48.988;8.544;2022-11-11T06:12:08;12.05;;;4.50;;
23565;SDS011;22140;48.988;8.544;2022-11-11T06:17:10;15.30;;;3.90;;
23565;SDS011;22140;48.988;8.544;2022-11-11T06:22:11;12.23;;;4.30;;
23565;SDS011;22140;48.988;8.544;2022-11-11T06:27:12;9.95;;;3.38;;
23565;SDS011;22140;48.988;8.544;2022-11-11T06:32:13;38.92;;;4.55;;
23565;SDS011;22140;48.988;8.544;2022-11-11T06:37:15;15.70;;;4.07;;
23565;SDS011;22140;48.988;8.544;2022-11-11T06:42:16;12.87;;;4.57;;
23565;SDS011;22140;48.988;8.544;2022-11-11T06:47:17;9.98;;;3.45;;
23565;SDS011;22140;48.988;8.544;2022-11-11T06:52:18;8.75;;;3.70;;
23565;SDS011;22140;48.988;8.544;2022-11-11T06:57:23;31.55;;;5.03;;
23565;SDS011;22140;48.988;8.544;2022-11-11T07:02:24;9.00;;;3.33;;
23565;SDS011;22140;48.988;8.544;2022-11-11T07:07:25;13.00;;;3.40;;
23565;SDS011;22140;48.988;8.544;2022-11-11T07:12:27;9.88;;;3.55;;
23565;SDS011;22140;48.988;8.544;2022-11-11T07:17:28;10.57;;;3.38;;
23565;SDS011;22140;48.988;8.544;2022-11-11T07:22:29;10.93;;;3.40;;
23565;SDS011;22140;48.988;8.544;2022-11-11T07:27:38;10.93;;;3.97;;
23565;SDS011;22140;48.988;8.544;2022-11-11T07:32:46;11.43;;;3.90;;
23565;SDS011;22140;48.988;8.544;2022-11-11T07:37:47;15.88;;;4.45;;
23565;SDS011;22140;48.988;8.544;2022-11-11T07:42:49;12.23;;;4.55;;
23565;SDS011;22140;48.988;8.544;2022-11-11T07:47:50;16.95;;;5.07;;
23565;SDS011;22140;48.988;8.544;2022-11-11T07:52:51;16.83;;;4.38;;
23565;SDS011;22140;48.988;8.544;2022-11-11T07:57:52;11.70;;;4.70;;
23565;SDS011;22140;48.988;8.544;2022-11-11T08:02:54;15.15;;;4.55;;
23565;SDS011;22140;48.988;8.544;2022-11-11T08:08:02;14.68;;;4.13;;
23565;SDS011;22140;48.988;8.544;2022-11-11T08:13:05;12.77;;;4.20;;
23565;SDS011;22140;48.988;8.544;2022-11-11T08:18:25;22.20;;;4.40;;
23565;SDS011;22140;48.988;8.544;2022-11-11T08:23:27;12.57;;;4.23;;
23565;SDS011;22140;48.988;8.544;2022-11-11T08:28:54;11.15;;;4.38;;
23565;SDS011;22140;48.988;8.544;2022-11-11T08:33:56;12.32;;;4.82;;
23565;SDS011;22140;48.988;8.544;2022-11-11T08:38:57;13.97;;;4.87;;
23565;SDS011;22140;48.988;8.544;2022-11-11T08:43:58;12.35;;;4.32;;
23565;SDS011;22140;48.988;8.544;2022-11-11T08:49:00;21.57;;;6.27;;
23565;SDS011;22140;48.988;8.544;2022-11-11T08:54:02;15.02;;;5.40;;
23565;SDS011;22140;48.988;8.544;2022-11-11T08:59:03;11.18;;;5.10;;
23565;SDS011;22140;48.988;8.544;2022-11-11T09:04:12;11.47;;;4.50;;
23565;SDS011;22140;48.988;8.544;2022-11-11T09:09:33;21.23;;;4.85;;
23565;SDS011;22140;48.988;8.544;2022-11-11T09:14:35;12.50;;;4.40;;
23565;SDS011;22140;48.988;8.544;2022-11-11T09:19:36;9.77;;;3.88;;
23565;SDS011;22140;48.988;8.544;2022-11-11T09:24:37;10.32;;;3.42;;
23565;SDS011;22140;48.988;8.544;2022-11-11T09:29:39;11.63;;;3.80;;
23565;SDS011;22140;48.988;8.544;2022-11-11T09:34:40;9.77;;;4.10;;
23565;SDS011;22140;48.988;8.544;2022-11-11T09:39:41;10.87;;;4.40;;
23565;SDS011;22140;48.988;8.544;2022-11-11T09:50:10;23.42;;;6.13;;
23565;SDS011;22140;48.988;8.544;2022-11-11T09:55:14;14.83;;;5.20;;
23565;SDS011;22140;48.988;8.544;2022-11-11T10:00:20;10.45;;;4.10;;
23565;SDS011;22140;48.988;8.544;2022-11-11T10:05:28;10.57;;;4.50;;
23565;SDS011;22140;48.988;8.544;2022-11-11T10:15:34;16.33;;;3.83;;
23565;SDS011;22140;48.988;8.544;2022-11-11T10:20:41;25.73;;;3.60;;
23565;SDS011;22140;48.988;8.544;2022-11-11T10:25:50;12.38;;;3.10;;
23565;SDS011;22140;48.988;8.544;2022-11-11T10:30:53;11.20;;;2.90;;
23565;SDS011;22140;48.988;8.544;2022-11-11T10:35:55;14.33;;;3.33;;
23565;SDS011;22140;48.988;8.544;2022-11-11T10:41:00;9.65;;;3.33;;
23565;SDS011;22140;48.988;8.544;2022-11-11T10:46:06;11.00;;;4.03;;
23565;SDS011;22140;48.988;8.544;2022-11-11T10:51:10;12.57;;;4.60;;
23565;SDS011;22140;48.988;8.544;2022-11-11T10:56:14;9.40;;;3.85;;
23565;SDS011;22140;48.988;8.544;2022-11-11T11:01:19;21.00;;;4.80;;
23565;SDS011;22140;48.988;8.544;2022-11-11T11:06:23;9.35;;;3.55;;
23565;SDS011;22140;48.988;8.544;2022-11-11T11:11:35;12.57;;;3.57;;
23565;SDS011;22140;48.988;8.544;2022-11-11T11:16:45;11.52;;;3.47;;
23565;SDS011;22140;48.988;8.544;2022-11-11T11:21:52;8.20;;;3.10;;
23565;SDS011;22140;48.988;8.544;2022-11-11T11:26:54;11.77;;;3.30;;
23565;SDS011;22140;48.988;8.544;2022-11-11T11:31:56;9.10;;;3.20;;
23565;SDS011;22140;48.988;8.544;2022-11-11T11:37:10;7.77;;;3.13;;
23565;SDS011;22140;48.988;8.544;2022-11-11T11:52:42;10.27;;;3.63;;
23565;SDS011;22140;48.988;8.544;2022-11-11T12:08:05;10.43;;;4.20;;
23565;SDS011;22140;48.988;8.544;2022-11-11T12:13:26;18.27;;;4.47;;
23565;SDS011;22140;48.988;8.544;2022-11-11T12:18:39;15.20;;;6.20;;
23565;SDS011;22140;48.988;8.544;2022-11-11T12:23:57;11.93;;;4.33;;
23565;SDS011;22140;48.988;8.544;2022-11-11T12:29:06;11.52;;;3.97;;
23565;SDS011;22140;48.988;8.544;2022-11-11T12:39:21;11.30;;;4.00;;
23565;SDS011;22140;48.988;8.544;2022-11-11T12:44:35;10.57;;;3.92;;
23565;SDS011;22140;48.988;8.544;2022-11-11T12:50:32;11.10;;;3.57;;
23565;SDS011;22140;48.988;8.544;2022-11-11T13:00:09;9.68;;;3.85;;
23565;SDS011;22140;48.988;8.544;2022-11-11T13:05:13;10.57;;;4.40;;
23565;SDS011;22140;48.988;8.544;2022-11-11T13:15:21;14.20;;;4.50;;
23565;SDS011;22140;48.988;8.544;2022-11-11T13:20:43;11.00;;;4.50;;
23565;SDS011;22140;48.988;8.544;2022-11-11T13:25:47;10.57;;;4.20;;
23565;SDS011;22140;48.988;8.544;2022-11-11T13:35:56;10.32;;;4.47;;
23565;SDS011;22140;48.988;8.544;2022-11-11T13:40:59;12.35;;;5.07;;
23565;SDS011;22140;48.988;8.544;2022-11-11T13:46:02;13.50;;;5.00;;
23565;SDS011;22140;48.988;8.544;2022-11-11T13:51:11;18.52;;;7.13;;
23565;SDS011;22140;48.988;8.544;2022-11-11T14:01:26;14.53;;;7.40;;
23565;SDS011;22140;48.988;8.544;2022-11-11T14:06:48;18.02;;;7.03;;
23565;SDS011;22140;48.988;8.544;2022-11-11T14:11:50;21.60;;;7.60;;
23565;SDS011;22140;48.988;8.544;2022-11-11T14:17:12;22.55;;;7.63;;
23565;SDS011;22140;48.988;8.544;2022-11-11T14:27:31;16.40;;;7.50;;
23565;SDS011;22140;48.988;8.544;2022-11-11T14:42:53;19.30;;;8.33;;
23565;SDS011;22140;48.988;8.544;2022-11-11T14:47:54;19.73;;;8.50;;
23565;SDS011;22140;48.988;8.544;2022-11-11T14:53:14;19.73;;;9.53;;
23565;SDS011;22140;48.988;8.544;2022-11-11T14:58:20;25.60;;;11.15;;
23565;SDS011;22140;48.988;8.544;2022-11-11T15:03:30;19.95;;;9.73;;
23565;SDS011;22140;48.988;8.544;2022-11-11T15:19:01;23.23;;;10.80;;
23565;SDS011;22140;48.988;8.544;2022-11-11T15:39:45;29.05;;;11.88;;
23565;SDS011;22140;48.988;8.544;2022-11-11T15:44:47;29.75;;;11.10;;
23565;SDS011;22140;48.988;8.544;2022-11-11T15:49:49;43.23;;;12.23;;
23565;SDS011;22140;48.988;8.544;2022-11-11T15:54:51;28.17;;;11.95;;
23565;SDS011;22140;48.988;8.544;2022-11-11T15:59:54;40.53;;;12.97;;
23565;SDS011;22140;48.988;8.544;2022-11-11T16:04:59;31.02;;;12.20;;
23565;SDS011;22140;48.988;8.544;2022-11-11T16:10:44;30.65;;;11.98;;
23565;SDS011;22140;48.988;8.544;2022-11-11T16:20:40;49.75;;;17.80;;
23565;SDS011;22140;48.988;8.544;2022-11-11T16:25:43;30.47;;;13.20;;
23565;SDS011;22140;48.988;8.544;2022-11-11T16:30:50;38.42;;;13.48;;
23565;SDS011;22140;48.988;8.544;2022-11-11T16:35:52;36.22;;;14.10;;
23565;SDS011;22140;48.988;8.544;2022-11-11T16:40:53;36.93;;;15.57;;
23565;SDS011;22140;48.988;8.544;2022-11-11T16:46:01;46.08;;;15.80;;
23565;SDS011;22140;48.988;8.544;2022-11-11T16:51:05;39.80;;;14.73;;
23565;SDS011;22140;48.988;8.544;2022-11-11T16:56:06;101.63;;;37.30;;
23565;SDS011;22140;48.988;8.544;2022-11-11T17:01:13;44.97;;;18.05;;
23565;SDS011;22140;48.988;8.544;2022-11-11T17:06:15;60.70;;;21.77;;
23565;SDS011;22140;48.988;8.544;2022-11-11T17:16:37;94.90;;;16.87;;
23565;SDS011;22140;48.988;8.544;2022-11-11T17:21:38;81.72;;;15.07;;
23565;SDS011;22140;48.988;8.544;2022-11-11T17:26:39;52.40;;;14.77;;
23565;SDS011;22140;48.988;8.544;2022-11-11T17:31:41;110.20;;;18.00;;
23565;SDS011;22140;48.988;8.544;2022-11-11T17:36:43;54.47;;;15.45;;
23565;SDS011;22140;48.988;8.544;2022-11-11T17:41:44;37.67;;;15.10;;
23565;SDS011;22140;48.988;8.544;2022-11-11T17:46:45;33.67;;;13.95;;
23565;SDS011;22140;48.988;8.544;2022-11-11T17:51:46;61.78;;;14.52;;
23565;SDS011;22140;48.988;8.544;2022-11-11T17:56:48;81.50;;;27.03;;
23565;SDS011;22140;48.988;8.544;2022-11-11T18:01:51;55.92;;;18.15;;
23565;SDS011;22140;48.988;8.544;2022-11-11T18:06:52;33.70;;;13.00;;
23565;SDS011;22140;48.988;8.544;2022-11-11T18:11:54;32.15;;;14.35;;
23565;SDS011;22140;48.988;8.544;2022-11-11T18:16:55;34.25;;;12.32;;
23565;SDS011;22140;48.988;8.544;2022-11-11T18:21:57;50.90;;;14.97;;
23565;SDS011;22140;48.988;8.544;2022-11-11T18:26:58;63.25;;;15.00;;
23565;SDS011;22140;48.988;8.544;2022-11-11T18:32:00;59.40;;;13.60;;
23565;SDS011;22140;48.988;8.544;2022-11-11T18:37:01;61.85;;;15.20;;
23565;SDS011;22140;48.988;8.544;2022-11-11T18:42:03;117.55;;;17.02;;
23565;SDS011;22140;48.988;8.544;2022-11-11T18:47:04;69.03;;;13.83;;
23565;SDS011;22140;48.988;8.544;2022-11-11T18:52:05;75.63;;;16.05;;
23565;SDS011;22140;48.988;8.544;2022-11-11T18:57:07;70.07;;;14.77;;
23565;SDS011;22140;48.988;8.544;2022-11-11T19:02:08;88.72;;;17.90;;
23565;SDS011;22140;48.988;8.544;2022-11-11T19:07:09;44.95;;;17.60;;
23565;SDS011;22140;48.988;8.544;2022-11-11T19:12:11;28.97;;;11.47;;
23565;SDS011;22140;48.988;8.544;2022-11-11T19:17:12;47.00;;;14.23;;
23565;SDS011;22140;48.988;8.544;2022-11-11T19:22:13;29.57;;;11.40;;
23565;SDS011;22140;48.988;8.544;2022-11-11T19:27:15;37.85;;;12.45;;
23565;SDS011;22140;48.988;8.544;2022-11-11T19:32:16;45.00;;;12.23;;
23565;SDS011;22140;48.988;8.544;2022-11-11T19:37:18;76.23;;;14.00;;
23565;SDS011;22140;48.988;8.544;2022-11-11T19:42:22;43.30;;;14.15;;
23565;SDS011;22140;48.988;8.544;2022-11-11T19:47:24;31.10;;;14.37;;
23565;SDS011;22140;48.988;8.544;2022-11-11T19:52:25;76.45;;;18.45;;
23565;SDS011;22140;48.988;8.544;2022-11-11T19:57:26;68.07;;;15.10;;
23565;SDS011;22140;48.988;8.544;2022-11-11T20:02:27;35.77;;;12.93;;
23565;SDS011;22140;48.988;8.544;2022-11-11T20:07:29;47.38;;;14.23;;
23565;SDS011;22140;48.988;8.544;2022-11-11T20:12:30;50.37;;;12.27;;
23565;SDS011;22140;48.988;8.544;2022-11-11T20:17:31;35.13;;;12.02;;
23565;SDS011;22140;48.988;8.544;2022-11-11T20:22:33;39.50;;;15.52;;
23565;SDS011;22140;48.988;8.544;2022-11-11T20:27:34;38.87;;;12.63;;
23565;SDS011;22140;48.988;8.544;2022-11-11T20:32:36;50.70;;;12.82;;
23565;SDS011;22140;48.988;8.544;2022-11-11T20:37:37;65.43;;;13.50;;
23565;SDS011;22140;48.988;8.544;2022-11-11T20:42:38;94.80;;;34.05;;
23565;SDS011;22140;48.988;8.544;2022-11-11T20:47:40;42.45;;;13.50;;
23565;SDS011;22140;48.988;8.544;2022-11-11T20:52:41;45.63;;;13.93;;
23565;SDS011;22140;48.988;8.544;2022-11-11T20:57:43;39.90;;;14.23;;
23565;SDS011;22140;48.988;8.544;2022-11-11T21:02:44;26.43;;;10.10;;
23565;SDS011;22140;48.988;8.544;2022-11-11T21:07:48;26.25;;;10.63;;
23565;SDS011;22140;48.988;8.544;2022-11-11T21:12:50;21.38;;;9.23;;
23565;SDS011;22140;48.988;8.544;2022-11-11T21:17:51;32.57;;;8.17;;
23565;SDS011;22140;48.988;8.544;2022-11-11T21:22:52;28.33;;;9.35;;
23565;SDS011;22140;48.988;8.544;2022-11-11T21:27:53;27.40;;;8.47;;
23565;SDS011;22140;48.988;8.544;2022-11-11T21:32:55;24.23;;;8.15;;
23565;SDS011;22140;48.988;8.544;2022-11-11T21:37:56;19.38;;;6.00;;
23565;SDS011;22140;48.988;8.544;2022-11-11T21:42:57;19.53;;;7.43;;
23565;SDS011;22140;48.988;8.544;2022-11-11T21:47:59;15.95;;;6.78;;
23565;SDS011;22140;48.988;8.544;2022-11-11T21:53:00;17.13;;;5.80;;
23565;SDS011;22140;48.988;8.544;2022-11-11T21:58:01;21.80;;;6.85;;
23565;SDS011;22140;48.988;8.544;2022-11-11T22:03:03;16.20;;;7.00;;
23565;SDS011;22140;48.988;8.544;2022-11-11T22:08:04;20.27;;;7.50;;
23565;SDS011;22140;48.988;8.544;2022-11-11T22:13:05;18.95;;;7.85;;
23565;SDS011;22140;48.988;8.544;2022-11-11T22:18:06;23.37;;;8.57;;
23565;SDS011;22140;48.988;8.544;2022-11-11T22:23:08;67.10;;;11.18;;
23565;SDS011;22140;48.988;8.544;2022-11-11T22:28:09;37.28;;;10.13;;
23565;SDS011;22140;48.988;8.544;2022-11-11T22:33:10;18.97;;;7.87;;
23565;SDS011;22140;48.988;8.544;2022-11-11T22:38:11;20.25;;;8.30;;
23565;SDS011;22140;48.988;8.544;2022-11-11T22:43:13;17.37;;;6.93;;
23565;SDS011;22140;48.988;8.544;2022-11-11T22:48:15;18.50;;;6.07;;
23565;SDS011;22140;48.988;8.544;2022-11-11T22:53:16;21.40;;;6.63;;
23565;SDS011;22140;48.988;8.544;2022-11-11T22:58:17;15.27;;;6.63;;
23565;SDS011;22140;48.988;8.544;2022-11-11T23:03:18;16.67;;;5.75;;
23565;SDS011;22140;48.988;8.544;2022-11-11T23:08:20;17.80;;;6.87;;
23565;SDS011;22140;48.988;8.544;2022-11-11T23:13:22;14.13;;;6.63;;
23565;SDS011;22140;48.988;8.544;2022-11-11T23:18:23;11.25;;;5.35;;
23565;SDS011;22140;48.988;8.544;2022-11-11T23:23:25;27.70;;;5.77;;
23565;SDS011;22140;48.988;8.544;2022-11-11T23:28:27;16.17;;;6.55;;
23565;SDS011;22140;48.988;8.544;2022-11-11T23:33:29;33.73;;;5.87;;
23565;SDS011;22140;48.988;8.544;2022-11-11T23:38:31;15.50;;;6.25;;
23565;SDS011;22140;48.988;8.544;2022-11-11T23:43:32;9.55;;;4.50;;
23565;SDS011;22140;48.988;8.544;2022-11-11T23:48:34;9.03;;;4.20;;
23565;SDS011;22140;48.988;8.544;2022-11-11T23:53:35;8.70;;;3.63;;
23565;SDS011;22140;48.988;8.544;2022-11-11T23:58:37;8.47;;;3.40;;
